Radiosonde details



Informationen :

Serial : D26002424
Type : Graw DFM
Frequency : 403.210MHz
Launchsite : Spokane
Nearest town : Spirit Lake, US (10.4km)

Altitude (Max) : 35008m at 2026-08-31 18:56:17
Speed (Max) : 91km/h at altitude 13013m

Average speed : 40km/h
Average ascent rate : 5m/s
Average descent rate : -11m/s
Ascent rate (Max) : 11.9m/s
Descent rate (Max): -27.7m/s

First frame :
WB7NNF at 2026-08-31 17:22:54 at altitude 5913m (OG: 5871m)
Last frame :
WB7NNF at 2026-08-31 19:38:54 at altitude 4478m (OG: 4436m)

Flighttime : 2h16m0s
Ascent time : 1h33m23s
Descent time : 42m37s
Uptime : -
Killtimer : -

Distance (Straight line distance): 72km

Distance (Route):


Frames : 382


Measurement :

Temperature : -3.7°C
Humidity : 0%
Pressure : 0hPa


Vertical profile (SkewT) :


Elevation profile :



Receiving stations :


Receiver Frames First received Last received
WB7NNF 382 2026-08-31 17:22:54 2026-08-31 19:38:54

Share per receiver :



All frames :


Receiver Date Latitude Longitude Direction Speed Altitude Climb Temperature Humidity Pressure Voltage Killtimer Uptime BKT XDATA
WB7NNF2026-08-31 19:38:5448.02463-116.7594469°33km/h4478m-6.1m/s-3.7°C0%0hPa0V00:00:0000:00:0000:00:00
WB7NNF2026-08-31 19:38:3248.02388-116.7620667°37km/h4615m-6.2m/s-4.8°C0%0hPa0V00:00:0000:00:0000:00:00
WB7NNF2026-08-31 19:38:1148.02314-116.7645767°35km/h4740m-6.3m/s-5.8°C0%0hPa0V00:00:0000:00:0000:00:00
WB7NNF2026-08-31 19:37:5148.02249-116.7670070°33km/h4876m-6.5m/s-6.6°C0%0hPa0V00:00:0000:00:0000:00:00
WB7NNF2026-08-31 19:37:3048.02185-116.7694570°33km/h5006m-6.6m/s-7.4°C0%0hPa0V00:00:0000:00:0000:00:00
WB7NNF2026-08-31 19:37:1048.02127-116.7721175°37km/h5147m-6.6m/s-8.0°C0%0hPa0V00:00:0000:00:0000:00:00
WB7NNF2026-08-31 19:36:4948.02077-116.7749479°37km/h5290m-6.8m/s-8.6°C0%0hPa0V00:00:0000:00:0000:00:00
WB7NNF2026-08-31 19:36:2848.02044-116.7776982°38km/h5427m-6.8m/s-9.5°C0%0hPa0V00:00:0000:00:0000:00:00
WB7NNF2026-08-31 19:36:0848.02010-116.7806278°38km/h5570m-6.7m/s-10.5°C0%0hPa0V00:00:0000:00:0000:00:00
WB7NNF2026-08-31 19:35:4648.01964-116.7834877°37km/h5712m-6.8m/s-11.5°C0%0hPa0V00:00:0000:00:0000:00:00
WB7NNF2026-08-31 19:35:2648.01922-116.7864280°37km/h5848m-6.7m/s-12.7°C0%0hPa0V00:00:0000:00:0000:00:00
WB7NNF2026-08-31 19:34:4848.01861-116.7915482°33km/h6114m-6.8m/s-14.6°C0%0hPa0V00:00:0000:00:0000:00:00
WB7NNF2026-08-31 19:34:2748.01802-116.7942869°42km/h6259m-6.7m/s-15.3°C0%0hPa0V00:00:0000:00:0000:00:00
WB7NNF2026-08-31 19:33:1848.01472-116.8039066°46km/h6737m-6.9m/s-17.5°C0%0hPa0V00:00:0000:00:0000:00:00
WB7NNF2026-08-31 19:32:5848.01383-116.8072171°42km/h6885m-6.9m/s-18.6°C0%0hPa0V00:00:0000:00:0000:00:00
WB7NNF2026-08-31 19:32:3748.01299-116.8101964°42km/h7033m-6.9m/s-19.6°C0%0hPa0V00:00:0000:00:0000:00:00
WB7NNF2026-08-31 19:32:1648.01205-116.8129168°38km/h7173m-7.1m/s-20.2°C0%0hPa0V00:00:0000:00:0000:00:00
WB7NNF2026-08-31 19:31:5648.01120-116.8157062°40km/h7320m-7.0m/s-21.2°C0%0hPa0V00:00:0000:00:0000:00:00
WB7NNF2026-08-31 19:31:3548.01021-116.8183765°42km/h7460m-7.1m/s-22.3°C0%0hPa0V00:00:0000:00:0000:00:00
WB7NNF2026-08-31 19:31:1548.00917-116.8213663°42km/h7607m-6.9m/s-23.3°C0%0hPa0V00:00:0000:00:0000:00:00
WB7NNF2026-08-31 19:30:5448.00813-116.8244365°47km/h7748m-7.1m/s-24.6°C0%0hPa0V00:00:0000:00:0000:00:00
WB7NNF2026-08-31 19:30:3448.00697-116.8276961°47km/h7898m-7.1m/s-25.9°C0%0hPa0V00:00:0000:00:0000:00:00
WB7NNF2026-08-31 19:30:1348.00577-116.8308262°47km/h8041m-7.2m/s-26.9°C0%0hPa0V00:00:0000:00:0000:00:00
WB7NNF2026-08-31 19:29:5348.00447-116.8340061°44km/h8191m-7.1m/s-27.4°C0%0hPa0V00:00:0000:00:0000:00:00
WB7NNF2026-08-31 19:29:3248.00334-116.8370159°46km/h8336m-7.3m/s-28.4°C0%0hPa0V00:00:0000:00:0000:00:00
WB7NNF2026-08-31 19:29:1248.00216-116.8402565°47km/h8488m-7.4m/s-29.7°C0%0hPa0V00:00:0000:00:0000:00:00
WB7NNF2026-08-31 19:28:5148.00103-116.8435665°49km/h8635m-7.3m/s-31.1°C0%0hPa0V00:00:0000:00:0000:00:00
WB7NNF2026-08-31 19:28:3147.99993-116.8472868°49km/h8788m-7.3m/s-32.3°C0%0hPa0V00:00:0000:00:0000:00:00
WB7NNF2026-08-31 19:28:1047.99875-116.8506564°49km/h8935m-7.2m/s-33.1°C0%0hPa0V00:00:0000:00:0000:00:00
WB7NNF2026-08-31 19:27:5047.99757-116.8539061°46km/h9089m-7.4m/s-34.2°C0%0hPa0V00:00:0000:00:0000:00:00
WB7NNF2026-08-31 19:27:2947.99648-116.8569563°42km/h9243m-7.3m/s-35.5°C0%0hPa0V00:00:0000:00:0000:00:00
WB7NNF2026-08-31 19:27:0847.99551-116.8598965°44km/h9391m-7.2m/s-36.8°C0%0hPa0V00:00:0000:00:0000:00:00
WB7NNF2026-08-31 19:26:4847.99442-116.8633167°49km/h9545m-7.2m/s-38.1°C0%0hPa0V00:00:0000:00:0000:00:00
WB7NNF2026-08-31 19:26:2747.99334-116.8666465°47km/h9693m-7.4m/s-39.3°C0%0hPa0V00:00:0000:00:0000:00:00
WB7NNF2026-08-31 19:26:0747.99226-116.8700466°47km/h9851m-7.5m/s-40.7°C0%0hPa0V00:00:0000:00:0000:00:00
WB7NNF2026-08-31 19:25:4647.99122-116.8731964°49km/h10002m-7.5m/s-42.1°C0%0hPa0V00:00:0000:00:0000:00:00
WB7NNF2026-08-31 19:25:2647.98993-116.8767863°53km/h10162m-7.6m/s-43.4°C0%0hPa0V00:00:0000:00:0000:00:00
WB7NNF2026-08-31 19:25:0547.98868-116.8803865°55km/h10316m-7.7m/s-44.8°C0%0hPa0V00:00:0000:00:0000:00:00
WB7NNF2026-08-31 19:24:4547.98719-116.8843060°60km/h10479m-7.7m/s-46.0°C0%0hPa0V00:00:0000:00:0000:00:00
WB7NNF2026-08-31 19:24:2447.98580-116.8882164°60km/h10635m-7.9m/s-47.3°C0%0hPa0V00:00:0000:00:0000:00:00
WB7NNF2026-08-31 19:24:0447.98436-116.8923064°60km/h10805m-8.1m/s-48.6°C0%0hPa0V00:00:0000:00:0000:00:00
WB7NNF2026-08-31 19:23:4347.98300-116.8966165°66km/h10964m-7.9m/s-49.9°C0%0hPa0V00:00:0000:00:0000:00:00
WB7NNF2026-08-31 19:23:2347.98147-116.9013564°66km/h11131m-7.9m/s-51.2°C0%0hPa0V00:00:0000:00:0000:00:00
WB7NNF2026-08-31 19:23:0247.98000-116.9057964°66km/h11293m-8.0m/s-52.3°C0%0hPa0V00:00:0000:00:0000:00:00
WB7NNF2026-08-31 19:22:4247.97858-116.9104569°66km/h11464m-8.2m/s-53.4°C0%0hPa0V00:00:0000:00:0000:00:00
WB7NNF2026-08-31 19:22:2147.97726-116.9147865°66km/h11628m-8.4m/s-54.1°C0%0hPa0V00:00:0000:00:0000:00:00
WB7NNF2026-08-31 19:22:0147.97567-116.9195466°68km/h11806m-8.5m/s-55.4°C0%0hPa0V00:00:0000:00:0000:00:00
WB7NNF2026-08-31 19:21:4047.97404-116.9244963°69km/h11983m-8.4m/s-56.7°C0%0hPa0V00:00:0000:00:0000:00:00
WB7NNF2026-08-31 19:21:1947.97248-116.9291463°69km/h12155m-8.5m/s-57.8°C0%0hPa0V00:00:0000:00:0000:00:00
WB7NNF2026-08-31 19:20:5947.97076-116.9338661°68km/h12336m-8.6m/s-59.1°C0%0hPa0V00:00:0000:00:0000:00:00
WB7NNF2026-08-31 19:20:3847.96899-116.9384761°75km/h12510m-8.8m/s-60.0°C0%0hPa0V00:00:0000:00:0000:00:00
WB7NNF2026-08-31 19:20:1847.96696-116.9437060°80km/h12696m-8.9m/s-60.6°C0%0hPa0V00:00:0000:00:0000:00:00
WB7NNF2026-08-31 19:19:5747.96514-116.9492371°75km/h12876m-8.7m/s-60.1°C0%0hPa0V00:00:0000:00:0000:00:00
WB7NNF2026-08-31 19:19:3747.96412-116.9544174°60km/h13069m-9.2m/s-61.0°C0%0hPa0V00:00:0000:00:0000:00:00
WB7NNF2026-08-31 19:19:1647.96276-116.9584960°58km/h13254m-9.3m/s-60.0°C0%0hPa0V00:00:0000:00:0000:00:00
WB7NNF2026-08-31 19:18:5647.96074-116.9622854°66km/h13452m-9.5m/s-58.5°C0%0hPa0V00:00:0000:00:0000:00:00
WB7NNF2026-08-31 19:18:3547.95874-116.9665060°77km/h13647m-9.7m/s-58.2°C0%0hPa0V00:00:0000:00:0000:00:00
WB7NNF2026-08-31 19:18:1547.95712-116.9713161°62km/h13856m-10.1m/s-58.5°C0%0hPa0V00:00:0000:00:0000:00:00
WB7NNF2026-08-31 19:17:5447.95544-116.9752858°60km/h14060m-10.3m/s-58.3°C0%0hPa0V00:00:0000:00:0000:00:00
WB7NNF2026-08-31 19:17:3447.95339-116.9792060°69km/h14276m-10.1m/s-57.7°C0%0hPa0V00:00:0000:00:0000:00:00
WB7NNF2026-08-31 19:17:1347.95198-116.9831364°55km/h14482m-10.5m/s-56.7°C0%0hPa0V00:00:0000:00:0000:00:00
WB7NNF2026-08-31 19:16:5347.95068-116.9871566°51km/h14701m-10.3m/s-57.0°C0%0hPa0V00:00:0000:00:0000:00:00
WB7NNF2026-08-31 19:16:3247.94944-116.9903761°46km/h14918m-10.0m/s-56.9°C0%0hPa0V00:00:0000:00:0000:00:00
WB7NNF2026-08-31 19:16:1147.94838-116.9929655°33km/h15121m-10.1m/s-56.4°C0%0hPa0V00:00:0000:00:0000:00:00
WB7NNF2026-08-31 19:15:5147.94725-116.9946045°37km/h15339m-8.7m/s-56.8°C0%0hPa0V00:00:0000:00:0000:00:00
WB7NNF2026-08-31 19:15:3047.94562-116.9967748°46km/h15515m-8.4m/s-55.8°C0%0hPa0V00:00:0000:00:0000:00:00
WB7NNF2026-08-31 19:15:1047.94421-116.9995453°40km/h15700m-8.9m/s-55.6°C0%0hPa0V00:00:0000:00:0000:00:00
WB7NNF2026-08-31 19:14:4947.94284-117.0018550°47km/h15877m-8.9m/s-55.7°C0%0hPa0V00:00:0000:00:0000:00:00
WB7NNF2026-08-31 19:14:2947.94127-117.0043036°38km/h16068m-8.7m/s-55.9°C0%0hPa0V00:00:0000:00:0000:00:00
WB7NNF2026-08-31 19:14:0847.93928-117.0056221°49km/h16252m-9.2m/s-56.3°C0%0hPa0V00:00:0000:00:0000:00:00
WB7NNF2026-08-31 19:13:4847.93708-117.0075943°47km/h16449m-9.4m/s-57.0°C0%0hPa0V00:00:0000:00:0000:00:00
WB7NNF2026-08-31 19:13:2747.93554-117.0101949°40km/h16640m-9.4m/s-56.6°C0%0hPa0V00:00:0000:00:0000:00:00
WB7NNF2026-08-31 19:13:0747.93395-117.0120331°40km/h16847m-9.7m/s-55.8°C0%0hPa0V00:00:0000:00:0000:00:00
WB7NNF2026-08-31 19:12:4647.93216-117.0140339°46km/h17048m-9.8m/s-56.0°C0%0hPa0V00:00:0000:00:0000:00:00
WB7NNF2026-08-31 19:12:2647.93024-117.0165361°53km/h17263m-10.1m/s-54.8°C0%0hPa0V00:00:0000:00:0000:00:00
WB7NNF2026-08-31 19:12:0647.92930-117.0195768°42km/h17473m-10.6m/s-54.0°C0%0hPa0V00:00:0000:00:0000:00:00
WB7NNF2026-08-31 19:11:4547.92830-117.0221351°44km/h17695m-10.5m/s-54.4°C0%0hPa0V00:00:0000:00:0000:00:00
WB7NNF2026-08-31 19:11:2447.92672-117.0250247°46km/h17920m-10.7m/s-53.0°C0%0hPa0V00:00:0000:00:0000:00:00
WB7NNF2026-08-31 19:11:0347.92502-117.0279355°51km/h18138m-10.9m/s-52.9°C0%0hPa0V00:00:0000:00:0000:00:00
WB7NNF2026-08-31 19:10:4347.92398-117.0304453°24km/h18374m-11.3m/s-51.9°C0%0hPa0V00:00:0000:00:0000:00:00
WB7NNF2026-08-31 19:10:2247.92277-117.0315441°38km/h18605m-11.4m/s-52.3°C0%0hPa0V00:00:0000:00:0000:00:00
WB7NNF2026-08-31 19:10:0247.92127-117.0340251°35km/h18850m-11.7m/s-52.4°C0%0hPa0V00:00:0000:00:0000:00:00
WB7NNF2026-08-31 19:09:4147.92059-117.0360887°31km/h19091m-11.9m/s-52.5°C0%0hPa0V00:00:0000:00:0000:00:00
WB7NNF2026-08-31 19:09:2147.92022-117.0374333°22km/h19349m-12.1m/s-53.0°C0%0hPa0V00:00:0000:00:0000:00:00
WB7NNF2026-08-31 19:09:0047.91935-117.0390574°26km/h19597m-12.5m/s-52.2°C0%0hPa0V00:00:0000:00:0000:00:00
WB7NNF2026-08-31 19:08:4047.91899-117.0401514°9km/h19866m-13.1m/s-52.4°C0%0hPa0V00:00:0000:00:0000:00:00
WB7NNF2026-08-31 19:08:1947.91851-117.0404731°13km/h20124m-13.0m/s-54.1°C0%0hPa0V00:00:0000:00:0000:00:00
WB7NNF2026-08-31 19:07:5947.91795-117.0415673°20km/h20399m-13.4m/s-53.5°C0%0hPa0V00:00:0000:00:0000:00:00
WB7NNF2026-08-31 19:07:3847.91756-117.0424840°13km/h20666m-13.4m/s-52.9°C0%0hPa0V00:00:0000:00:0000:00:00
WB7NNF2026-08-31 19:07:1847.91727-117.04263317°9km/h20954m-13.8m/s-52.3°C0%0hPa0V00:00:0000:00:0000:00:00
WB7NNF2026-08-31 19:06:5747.91670-117.0427829°20km/h21236m-14.5m/s-52.2°C0%0hPa0V00:00:0000:00:0000:00:00
WB7NNF2026-08-31 19:06:3747.91588-117.04346349°26km/h21543m-14.7m/s-51.6°C0%0hPa0V00:00:0000:00:0000:00:00
WB7NNF2026-08-31 19:06:1647.91414-117.0431726km/h21859m-15.1m/s-51.3°C0%0hPa0V00:00:0000:00:0000:00:00
WB7NNF2026-08-31 19:05:5547.91315-117.04343352°9km/h22171m-15.6m/s-51.6°C0%0hPa0V00:00:0000:00:0000:00:00
WB7NNF2026-08-31 19:05:3547.91273-117.04266291°15km/h22508m-16.0m/s-52.0°C0%0hPa0V00:00:0000:00:0000:00:00
WB7NNF2026-08-31 19:05:1447.91197-117.04164337°22km/h22840m-16.9m/s-51.9°C0%0hPa0V00:00:0000:00:0000:00:00
WB7NNF2026-08-31 19:04:5447.91119-117.04093309°16km/h23196m-16.8m/s-51.4°C0%0hPa0V00:00:0000:00:0000:00:00
WB7NNF2026-08-31 19:04:3347.91028-117.0405931km/h23536m-16.6m/s-51.7°C0%0hPa0V00:00:0000:00:0000:00:00
WB7NNF2026-08-31 19:04:1347.90916-117.04066332°11km/h23895m-17.1m/s-51.2°C0%0hPa0V00:00:0000:00:0000:00:00
WB7NNF2026-08-31 19:03:5247.90818-117.0406240°20km/h24250m-17.9m/s-51.1°C0%0hPa0V00:00:0000:00:0000:00:00
WB7NNF2026-08-31 19:03:3247.90797-117.04166125°13km/h24633m-18.9m/s-50.8°C0%0hPa0V00:00:0000:00:0000:00:00
WB7NNF2026-08-31 19:03:1047.90832-117.04178273°5km/h25031m-19.1m/s-50.7°C0%0hPa0V00:00:0000:00:0000:00:00
WB7NNF2026-08-31 19:02:2147.90729-117.04119158°13km/h26007m-21.1m/s-47.7°C0%0hPa0V00:00:0000:00:0000:00:00
WB7NNF2026-08-31 19:01:5747.90681-117.04009348°29km/h26543m-21.9m/s-48.1°C0%0hPa0V00:00:0000:00:0000:00:00
WB7NNF2026-08-31 19:01:3647.90571-117.0402326km/h26988m-22.7m/s-47.4°C0%0hPa0V00:00:0000:00:0000:00:00
WB7NNF2026-08-31 19:00:4047.90375-117.04055345°9km/h28331m-24.3m/s-46.3°C0%0hPa0V00:00:0000:00:0000:00:00
WB7NNF2026-08-31 19:00:1947.90375-117.04081178°4km/h28832m-25.4m/s-46.8°C0%0hPa0V00:00:0000:00:0000:00:00
WB7NNF2026-08-31 18:59:5947.90299-117.0410051°13km/h29373m-25.7m/s-40.6°C0%0hPa0V00:00:0000:00:0000:00:00
WB7NNF2026-08-31 18:58:1447.90303-117.04616224°20km/h32449m-27.7m/s-40.3°C0%0hPa0V00:00:0000:00:0000:00:00
WB7NNF2026-08-31 18:57:5447.90265-117.04737139°44km/h32945m-17.2m/s-39.7°C0%0hPa0V00:00:0000:00:0000:00:00
WB7NNF2026-08-31 18:57:3347.90216-117.04924165°60km/h33453m-21.5m/s-37.9°C0%0hPa0V00:00:0000:00:0000:00:00
WB7NNF2026-08-31 18:56:5147.90338-117.0524989°5km/h34426m-26.0m/s-37.4°C0%0hPa0V00:00:0000:00:0000:00:00
WB7NNF2026-08-31 18:56:1747.90362-117.05653158°57km/h35008m6.5m/s-35.9°C0%0hPa0V00:00:0000:00:0000:00:00
WB7NNF2026-08-31 18:55:5647.90375-117.0577817°40km/h34869m5.5m/s-36.3°C0%0hPa0V00:00:0000:00:0000:00:00
WB7NNF2026-08-31 18:55:3647.90351-117.06025135°46km/h34725m6.6m/s-36.2°C0%0hPa0V00:00:0000:00:0000:00:00
WB7NNF2026-08-31 18:55:1547.90336-117.06203277°27km/h34590m2.9m/s-37.1°C0%0hPa0V00:00:0000:00:0000:00:00
WB7NNF2026-08-31 18:54:5547.90304-117.0635191°75km/h34448m11.1m/s-37.5°C0%0hPa0V00:00:0000:00:0000:00:00
WB7NNF2026-08-31 18:54:3447.90301-117.06506277°31km/h34320m9.9m/s-36.9°C0%0hPa0V00:00:0000:00:0000:00:00
WB7NNF2026-08-31 18:54:1447.90246-117.0662594°66km/h34173m8.6m/s-36.9°C0%0hPa0V00:00:0000:00:0000:00:00
WB7NNF2026-08-31 18:53:5347.90241-117.06733250°37km/h34043m3.7m/s-36.9°C0%0hPa0V00:00:0000:00:0000:00:00
WB7NNF2026-08-31 18:53:3347.90242-117.06767106°44km/h33901m8.0m/s-37.1°C0%0hPa0V00:00:0000:00:0000:00:00
WB7NNF2026-08-31 18:53:1247.90349-117.06782242°46km/h33763m7.7m/s-37.4°C0%0hPa0V00:00:0000:00:0000:00:00
WB7NNF2026-08-31 18:52:5147.90440-117.0687591°73km/h33634m1.4m/s-38.1°C0%0hPa0V00:00:0000:00:0000:00:00
WB7NNF2026-08-31 18:52:3147.90524-117.07067332°44km/h33501m5.5m/s-38.5°C0%0hPa0V00:00:0000:00:0000:00:00
WB7NNF2026-08-31 18:52:1047.90437-117.07254105°64km/h33370m7.0m/s-39.3°C0%0hPa0V00:00:0000:00:0000:00:00
WB7NNF2026-08-31 18:51:5047.90346-117.0738512°78km/h33237m6.8m/s-40.3°C0%0hPa0V00:00:0000:00:0000:00:00
WB7NNF2026-08-31 18:51:2947.90254-117.07632120°58km/h33107m11.9m/s-40.3°C0%0hPa0V00:00:0000:00:0000:00:00
WB7NNF2026-08-31 18:51:0947.90210-117.0781222°51km/h32974m9.0m/s-40.2°C0%0hPa0V00:00:0000:00:0000:00:00
WB7NNF2026-08-31 18:50:4847.90207-117.08061153°44km/h32838m5.0m/s-39.9°C0%0hPa0V00:00:0000:00:0000:00:00
WB7NNF2026-08-31 18:50:2847.90147-117.0825280°68km/h32697m9.9m/s-40.3°C0%0hPa0V00:00:0000:00:0000:00:00
WB7NNF2026-08-31 18:50:0747.90141-117.08426293°15km/h32565m3.1m/s-41.0°C0%0hPa0V00:00:0000:00:0000:00:00
WB7NNF2026-08-31 18:49:4747.90088-117.0858883°44km/h32423m6.2m/s-41.4°C0%0hPa0V00:00:0000:00:0000:00:00
WB7NNF2026-08-31 18:49:2647.90079-117.08680189°18km/h32292m-0.5m/s-41.4°C0%0hPa0V00:00:0000:00:0000:00:00
WB7NNF2026-08-31 18:49:0647.90109-117.0876994°37km/h32155m3.4m/s-41.9°C0%0hPa0V00:00:0000:00:0000:00:00
WB7NNF2026-08-31 18:48:4547.90154-117.08793227°42km/h32026m4.5m/s-42.8°C0%0hPa0V00:00:0000:00:0000:00:00
WB7NNF2026-08-31 18:48:2547.90181-117.0882766°44km/h31893m7.3m/s-42.7°C0%0hPa0V00:00:0000:00:0000:00:00
WB7NNF2026-08-31 18:48:0447.90215-117.08956228°22km/h31761m7.8m/s-42.9°C0%0hPa0V00:00:0000:00:0000:00:00
WB7NNF2026-08-31 18:47:4347.90214-117.0903848°27km/h31637m11.3m/s-43.5°C0%0hPa0V00:00:0000:00:0000:00:00
WB7NNF2026-08-31 18:47:2347.90242-117.09112188°37km/h31505m10.2m/s-44.4°C0%0hPa0V00:00:0000:00:0000:00:00
WB7NNF2026-08-31 18:47:0247.90308-117.0918460°37km/h31379m11.1m/s-44.7°C0%0hPa0V00:00:0000:00:0000:00:00
WB7NNF2026-08-31 18:46:4247.90390-117.09328243°33km/h31244m8.6m/s-44.8°C0%0hPa0V00:00:0000:00:0000:00:00
WB7NNF2026-08-31 18:46:2147.90400-117.09455100°57km/h31113m11.0m/s-44.9°C0%0hPa0V00:00:0000:00:0000:00:00
WB7NNF2026-08-31 18:46:0147.90395-117.0962360°15km/h30981m8.4m/s-45.4°C0%0hPa0V00:00:0000:00:0000:00:00
WB7NNF2026-08-31 18:45:4047.90342-117.0974058°35km/h30849m3.4m/s-44.7°C0%0hPa0V00:00:0000:00:0000:00:00
WB7NNF2026-08-31 18:45:2047.90372-117.09819208°26km/h30709m7.1m/s-44.4°C0%0hPa0V00:00:0000:00:0000:00:00
WB7NNF2026-08-31 18:44:5947.90372-117.0986870°35km/h30576m0.6m/s-43.7°C0%0hPa0V00:00:0000:00:0000:00:00
WB7NNF2026-08-31 18:44:3947.90428-117.09923238°42km/h30437m3.9m/s-43.1°C0%0hPa0V00:00:0000:00:0000:00:00
WB7NNF2026-08-31 18:44:1747.90460-117.09974122°44km/h30297m6.8m/s-42.4°C0%0hPa0V00:00:0000:00:0000:00:00
WB7NNF2026-08-31 18:43:5647.90495-117.1004023°26km/h30157m10.4m/s-42.6°C0%0hPa0V00:00:0000:00:0000:00:00
WB7NNF2026-08-31 18:43:3547.90461-117.10208226°5km/h30015m10.0m/s-44.6°C0%0hPa0V00:00:0000:00:0000:00:00
WB7NNF2026-08-31 18:43:1547.90415-117.1026179°44km/h29882m8.0m/s-44.4°C0%0hPa0V00:00:0000:00:0000:00:00
WB7NNF2026-08-31 18:42:5447.90461-117.10332191°37km/h29744m7.7m/s-45.0°C0%0hPa0V00:00:0000:00:0000:00:00
WB7NNF2026-08-31 18:42:3447.90563-117.1042384°29km/h29605m4.0m/s-45.0°C0%0hPa0V00:00:0000:00:0000:00:00
WB7NNF2026-08-31 18:42:1347.90595-117.1051078°9km/h29465m8.8m/s-45.2°C0%0hPa0V00:00:0000:00:0000:00:00
WB7NNF2026-08-31 18:41:5147.90533-117.10590309°13km/h29325m10.2m/s-45.7°C0%0hPa0V00:00:0000:00:0000:00:00
WB7NNF2026-08-31 18:41:3047.90423-117.1059913°44km/h29188m5.9m/s-47.2°C0%0hPa0V00:00:0000:00:0000:00:00
WB7NNF2026-08-31 18:41:1047.90342-117.1062213°18km/h29048m6.1m/s-47.6°C0%0hPa0V00:00:0000:00:0000:00:00
WB7NNF2026-08-31 18:40:4947.90341-117.10619110°18km/h28926m5.8m/s-47.3°C0%0hPa0V00:00:0000:00:0000:00:00
WB7NNF2026-08-31 18:40:2947.90335-117.10686175°20km/h28792m7.3m/s-47.1°C0%0hPa0V00:00:0000:00:0000:00:00
WB7NNF2026-08-31 18:40:0847.90305-117.1077525°33km/h28667m1.1m/s-47.3°C0%0hPa0V00:00:0000:00:0000:00:00
WB7NNF2026-08-31 18:39:4847.90261-117.10802341°9km/h28546m8.4m/s-46.7°C0%0hPa0V00:00:0000:00:0000:00:00
WB7NNF2026-08-31 18:39:2747.90162-117.10769357°9km/h28414m7.6m/s-46.7°C0%0hPa0V00:00:0000:00:0000:00:00
WB7NNF2026-08-31 18:39:0647.90069-117.10709339°44km/h28291m5.3m/s-47.0°C0%0hPa0V00:00:0000:00:0000:00:00
WB7NNF2026-08-31 18:38:4647.89982-117.1069918km/h28166m8.2m/s-47.3°C0%0hPa0V00:00:0000:00:0000:00:00
WB7NNF2026-08-31 18:38:2647.89921-117.1074317°26km/h28043m8.6m/s-47.3°C0%0hPa0V00:00:0000:00:0000:00:00
WB7NNF2026-08-31 18:38:0547.89838-117.10807334°11km/h27920m7.4m/s-47.3°C0%0hPa0V00:00:0000:00:0000:00:00
WB7NNF2026-08-31 18:37:4447.89708-117.1086624°22km/h27790m6.2m/s-47.4°C0%0hPa0V00:00:0000:00:0000:00:00
WB7NNF2026-08-31 18:37:2247.89573-117.1087690°29km/h27662m7.3m/s-47.5°C0%0hPa0V00:00:0000:00:0000:00:00
WB7NNF2026-08-31 18:37:0047.89458-117.10862336°16km/h27521m7.2m/s-47.2°C0%0hPa0V00:00:0000:00:0000:00:00
WB7NNF2026-08-31 18:36:3947.89412-117.10811309°11km/h27392m7.4m/s-47.1°C0%0hPa0V00:00:0000:00:0000:00:00
WB7NNF2026-08-31 18:36:1847.89351-117.1083370°38km/h27269m4.2m/s-47.2°C0%0hPa0V00:00:0000:00:0000:00:00
WB7NNF2026-08-31 18:35:5847.89236-117.10848339°18km/h27142m7.1m/s-47.4°C0%0hPa0V00:00:0000:00:0000:00:00
WB7NNF2026-08-31 18:35:3747.89096-117.10885359°35km/h27017m7.1m/s-47.6°C0%0hPa0V00:00:0000:00:0000:00:00
WB7NNF2026-08-31 18:35:1747.88998-117.10908348°27km/h26887m7.7m/s-47.7°C0%0hPa0V00:00:0000:00:0000:00:00
WB7NNF2026-08-31 18:34:5647.88888-117.1088054°5km/h26768m8.7m/s-47.8°C0%0hPa0V00:00:0000:00:0000:00:00
WB7NNF2026-08-31 18:34:3647.88762-117.10840348°53km/h26643m3.6m/s-47.8°C0%0hPa0V00:00:0000:00:0000:00:00
WB7NNF2026-08-31 18:34:1547.88600-117.10781318°46km/h26522m3.7m/s-47.7°C0%0hPa0V00:00:0000:00:0000:00:00
WB7NNF2026-08-31 18:33:5347.88474-117.10650287°49km/h26386m1.1m/s-47.9°C0%0hPa0V00:00:0000:00:0000:00:00
WB7NNF2026-08-31 18:33:3247.88429-117.10516284°11km/h26271m6.1m/s-48.3°C0%0hPa0V00:00:0000:00:0000:00:00
WB7NNF2026-08-31 18:33:1247.88427-117.10484150°15km/h26143m7.0m/s-48.0°C0%0hPa0V00:00:0000:00:0000:00:00
WB7NNF2026-08-31 18:32:5147.88451-117.1055973°13km/h26024m7.7m/s-48.0°C0%0hPa0V00:00:0000:00:0000:00:00
WB7NNF2026-08-31 18:32:3147.88453-117.1069382°49km/h25902m4.2m/s-49.1°C0%0hPa0V00:00:0000:00:0000:00:00
WB7NNF2026-08-31 18:32:1147.88387-117.1077941°24km/h25788m2.2m/s-49.6°C0%0hPa0V00:00:0000:00:0000:00:00
WB7NNF2026-08-31 18:31:5047.88314-117.10747344°18km/h25670m4.6m/s-50.2°C0%0hPa0V00:00:0000:00:0000:00:00
WB7NNF2026-08-31 18:31:3047.88177-117.10652346°44km/h25556m7.6m/s-50.6°C0%0hPa0V00:00:0000:00:0000:00:00
WB7NNF2026-08-31 18:31:0947.88042-117.10509327°31km/h25437m6.4m/s-50.4°C0%0hPa0V00:00:0000:00:0000:00:00
WB7NNF2026-08-31 18:30:4847.87975-117.10429304°13km/h25326m6.1m/s-50.6°C0%0hPa0V00:00:0000:00:0000:00:00
WB7NNF2026-08-31 18:30:2847.87927-117.10289301°44km/h25202m5.0m/s-50.2°C0%0hPa0V00:00:0000:00:0000:00:00
WB7NNF2026-08-31 18:30:0747.87926-117.10171253°27km/h25078m6.9m/s-49.9°C0%0hPa0V00:00:0000:00:0000:00:00
WB7NNF2026-08-31 18:29:4647.87942-117.10076250°18km/h24960m8.1m/s-49.5°C0%0hPa0V00:00:0000:00:0000:00:00
WB7NNF2026-08-31 18:29:2647.87969-117.10023145°26km/h24837m5.3m/s-49.3°C0%0hPa0V00:00:0000:00:0000:00:00
WB7NNF2026-08-31 18:29:0547.88014-117.10035182°24km/h24716m4.7m/s-49.0°C0%0hPa0V00:00:0000:00:0000:00:00
WB7NNF2026-08-31 18:28:4547.88097-117.10014142°24km/h24595m5.0m/s-49.0°C0%0hPa0V00:00:0000:00:0000:00:00
WB7NNF2026-08-31 18:28:2447.88161-117.10063127°29km/h24480m4.2m/s-48.8°C0%0hPa0V00:00:0000:00:0000:00:00
WB7NNF2026-08-31 18:28:0447.88197-117.1019399°7km/h24361m6.8m/s-48.5°C0%0hPa0V00:00:0000:00:0000:00:00
WB7NNF2026-08-31 18:27:4347.88204-117.10335103°16km/h24243m6.6m/s-48.3°C0%0hPa0V00:00:0000:00:0000:00:00
WB7NNF2026-08-31 18:27:2147.88157-117.1048765°31km/h24124m4.3m/s-48.6°C0%0hPa0V00:00:0000:00:0000:00:00
WB7NNF2026-08-31 18:27:0047.88088-117.1060736°29km/h24016m6.1m/s-49.6°C0%0hPa0V00:00:0000:00:0000:00:00
WB7NNF2026-08-31 18:26:4047.87985-117.1065830°13km/h23905m6.5m/s-49.4°C0%0hPa0V00:00:0000:00:0000:00:00
WB7NNF2026-08-31 18:26:1947.87937-117.10665332°26km/h23796m5.4m/s-50.3°C0%0hPa0V00:00:0000:00:0000:00:00
WB7NNF2026-08-31 18:25:5947.87888-117.10690334°16km/h23683m5.4m/s-50.5°C0%0hPa0V00:00:0000:00:0000:00:00
WB7NNF2026-08-31 18:25:3847.87777-117.1073814°29km/h23567m5.5m/s-51.0°C0%0hPa0V00:00:0000:00:0000:00:00
WB7NNF2026-08-31 18:25:1547.87643-117.10762349°7km/h23439m5.7m/s-50.7°C0%0hPa0V00:00:0000:00:0000:00:00
WB7NNF2026-08-31 18:24:5447.87567-117.10754290°5km/h23329m4.5m/s-51.0°C0%0hPa0V00:00:0000:00:0000:00:00
WB7NNF2026-08-31 18:24:3347.87539-117.10733349°16km/h23203m6.7m/s-50.7°C0%0hPa0V00:00:0000:00:0000:00:00
WB7NNF2026-08-31 18:24:1147.87538-117.10678227°9km/h23081m6.9m/s-51.0°C0%0hPa0V00:00:0000:00:0000:00:00
WB7NNF2026-08-31 18:23:5047.87532-117.10626106°13km/h22957m4.4m/s-51.4°C0%0hPa0V00:00:0000:00:0000:00:00
WB7NNF2026-08-31 18:23:2947.87478-117.10610327°18km/h22846m5.9m/s-51.5°C0%0hPa0V00:00:0000:00:0000:00:00
WB7NNF2026-08-31 18:23:0947.87424-117.10525355°4km/h22724m2.3m/s-51.7°C0%0hPa0V00:00:0000:00:0000:00:00
WB7NNF2026-08-31 18:22:4747.87411-117.10408240°26km/h22613m6.0m/s-51.4°C0%0hPa0V00:00:0000:00:0000:00:00
WB7NNF2026-08-31 18:22:2647.87455-117.10282208°16km/h22499m4.6m/s-51.3°C0%0hPa0V00:00:0000:00:0000:00:00
WB7NNF2026-08-31 18:22:0547.87491-117.1024049°13km/h22392m5.9m/s-51.4°C0%0hPa0V00:00:0000:00:0000:00:00
WB7NNF2026-08-31 18:21:4547.87518-117.1023269°5km/h22285m4.9m/s-51.4°C0%0hPa0V00:00:0000:00:0000:00:00
WB7NNF2026-08-31 18:21:2447.87520-117.1027248°22km/h22177m4.9m/s-51.9°C0%0hPa0V00:00:0000:00:0000:00:00
WB7NNF2026-08-31 18:21:0447.87456-117.1037217°18km/h22064m5.8m/s-52.0°C0%0hPa0V00:00:0000:00:0000:00:00
WB7NNF2026-08-31 18:20:4447.87368-117.1042935km/h21955m6.4m/s-52.6°C0%0hPa0V00:00:0000:00:0000:00:00
WB7NNF2026-08-31 18:20:2347.87212-117.10454354°38km/h21847m5.4m/s-52.9°C0%0hPa0V00:00:0000:00:0000:00:00
WB7NNF2026-08-31 18:20:0247.87108-117.10408358°26km/h21728m6.3m/s-53.5°C0%0hPa0V00:00:0000:00:0000:00:00
WB7NNF2026-08-31 18:19:4247.87026-117.1042819°4km/h21610m5.2m/s-53.5°C0%0hPa0V00:00:0000:00:0000:00:00
WB7NNF2026-08-31 18:19:2147.86985-117.1052348°16km/h21497m6.7m/s-53.8°C0%0hPa0V00:00:0000:00:0000:00:00
WB7NNF2026-08-31 18:19:0147.86906-117.1060311°24km/h21381m6.1m/s-53.7°C0%0hPa0V00:00:0000:00:0000:00:00
WB7NNF2026-08-31 18:18:4147.86827-117.10622351°15km/h21267m3.7m/s-53.5°C0%0hPa0V00:00:0000:00:0000:00:00
WB7NNF2026-08-31 18:18:2047.86818-117.10632263°5km/h21154m5.2m/s-53.0°C0%0hPa0V00:00:0000:00:0000:00:00
WB7NNF2026-08-31 18:17:5947.86822-117.1062970°7km/h21050m5.7m/s-52.8°C0%0hPa0V00:00:0000:00:0000:00:00
WB7NNF2026-08-31 18:17:3947.86825-117.10615248°11km/h20939m4.5m/s-53.6°C0%0hPa0V00:00:0000:00:0000:00:00
WB7NNF2026-08-31 18:17:1847.86825-117.10674105°22km/h20836m3.9m/s-53.8°C0%0hPa0V00:00:0000:00:0000:00:00
WB7NNF2026-08-31 18:16:5647.86785-117.1076087°7km/h20723m4.1m/s-53.8°C0%0hPa0V00:00:0000:00:0000:00:00
WB7NNF2026-08-31 18:16:3647.86779-117.10813106°29km/h20615m4.0m/s-53.9°C0%0hPa0V00:00:0000:00:0000:00:00
WB7NNF2026-08-31 18:16:1547.86741-117.1096662°27km/h20509m4.9m/s-54.0°C0%0hPa0V00:00:0000:00:0000:00:00
WB7NNF2026-08-31 18:15:5447.86699-117.1112754°33km/h20400m6.8m/s-54.5°C0%0hPa0V00:00:0000:00:0000:00:00
WB7NNF2026-08-31 18:15:3347.86625-117.1121031°26km/h20298m6.1m/s-54.4°C0%0hPa0V00:00:0000:00:0000:00:00
WB7NNF2026-08-31 18:15:1347.86551-117.11295349°15km/h20187m5.2m/s-54.2°C0%0hPa0V00:00:0000:00:0000:00:00
WB7NNF2026-08-31 18:14:3247.86418-117.1138322°15km/h19969m4.3m/s-52.6°C0%0hPa0V00:00:0000:00:0000:00:00
WB7NNF2026-08-31 18:14:1147.86354-117.1144050°13km/h19863m5.4m/s-52.0°C0%0hPa0V00:00:0000:00:0000:00:00
WB7NNF2026-08-31 18:13:5147.86303-117.1150828°9km/h19752m6.2m/s-51.8°C0%0hPa0V00:00:0000:00:0000:00:00
WB7NNF2026-08-31 18:13:3047.86254-117.1163162°22km/h19646m4.8m/s-52.2°C0%0hPa0V00:00:0000:00:0000:00:00
WB7NNF2026-08-31 18:13:1047.86168-117.1184836°38km/h19536m5.8m/s-53.4°C0%0hPa0V00:00:0000:00:0000:00:00
WB7NNF2026-08-31 18:12:4947.86021-117.1198620°46km/h19438m1.7m/s-53.1°C0%0hPa0V00:00:0000:00:0000:00:00
WB7NNF2026-08-31 18:12:2947.85904-117.1206035°13km/h19331m3.2m/s-52.6°C0%0hPa0V00:00:0000:00:0000:00:00
WB7NNF2026-08-31 18:12:0847.85836-117.1213433°27km/h19232m4.7m/s-52.1°C0%0hPa0V00:00:0000:00:0000:00:00
WB7NNF2026-08-31 18:11:4847.85796-117.12244101°22km/h19117m5.6m/s-51.9°C0%0hPa0V00:00:0000:00:0000:00:00
WB7NNF2026-08-31 18:11:2747.85779-117.1244574°27km/h19016m5.2m/s-52.3°C0%0hPa0V00:00:0000:00:0000:00:00
WB7NNF2026-08-31 18:11:0747.85705-117.1264073°31km/h18916m6.1m/s-52.4°C0%0hPa0V00:00:0000:00:0000:00:00
WB7NNF2026-08-31 18:10:2547.85456-117.1306239°38km/h18713m5.6m/s-52.8°C0%0hPa0V00:00:0000:00:0000:00:00
WB7NNF2026-08-31 18:10:0547.85306-117.1323238°20km/h18605m4.7m/s-52.4°C0%0hPa0V00:00:0000:00:0000:00:00
WB7NNF2026-08-31 18:09:4447.85172-117.1331333°33km/h18503m3.5m/s-51.9°C0%0hPa0V00:00:0000:00:0000:00:00
WB7NNF2026-08-31 18:09:2447.85082-117.1340626°27km/h18397m4.3m/s-52.3°C0%0hPa0V00:00:0000:00:0000:00:00
WB7NNF2026-08-31 18:09:0247.85001-117.1361356°35km/h18296m5.1m/s-52.7°C0%0hPa0V00:00:0000:00:0000:00:00
WB7NNF2026-08-31 18:08:4147.84837-117.1390650°58km/h18189m5.6m/s-53.3°C0%0hPa0V00:00:0000:00:0000:00:00
WB7NNF2026-08-31 18:08:2047.84642-117.1418940°57km/h18091m6.3m/s-53.3°C0%0hPa0V00:00:0000:00:0000:00:00
WB7NNF2026-08-31 18:08:0047.84454-117.1446553°38km/h17987m5.5m/s-53.7°C0%0hPa0V00:00:0000:00:0000:00:00
WB7NNF2026-08-31 18:07:3947.84277-117.1473345°49km/h17891m5.5m/s-54.2°C0%0hPa0V00:00:0000:00:0000:00:00
WB7NNF2026-08-31 18:07:1947.84097-117.1496926°46km/h17789m5.4m/s-54.1°C0%0hPa0V00:00:0000:00:0000:00:00
WB7NNF2026-08-31 18:06:5947.83903-117.1521042°44km/h17686m6.3m/s-54.1°C0%0hPa0V00:00:0000:00:0000:00:00
WB7NNF2026-08-31 18:06:3847.83756-117.1542861°35km/h17586m6.7m/s-53.5°C0%0hPa0V00:00:0000:00:0000:00:00
WB7NNF2026-08-31 18:06:1747.83672-117.1566575°40km/h17482m4.4m/s-53.7°C0%0hPa0V00:00:0000:00:0000:00:00
WB7NNF2026-08-31 18:05:5747.83556-117.1591654°33km/h17377m5.6m/s-54.0°C0%0hPa0V00:00:0000:00:0000:00:00
WB7NNF2026-08-31 18:05:3647.83428-117.1619551°62km/h17279m5.8m/s-54.5°C0%0hPa0V00:00:0000:00:0000:00:00
WB7NNF2026-08-31 18:05:1647.83237-117.1646933°47km/h17175m6.0m/s-55.0°C0%0hPa0V00:00:0000:00:0000:00:00
WB7NNF2026-08-31 18:04:5547.83052-117.1662733°37km/h17081m4.9m/s-55.2°C0%0hPa0V00:00:0000:00:0000:00:00
WB7NNF2026-08-31 18:04:3547.82864-117.1677935°37km/h16979m3.8m/s-55.5°C0%0hPa0V00:00:0000:00:0000:00:00
WB7NNF2026-08-31 18:04:1447.82699-117.1696843°31km/h16883m6.2m/s-55.3°C0%0hPa0V00:00:0000:00:0000:00:00
WB7NNF2026-08-31 18:03:5447.82535-117.1713025°29km/h16784m5.1m/s-55.3°C0%0hPa0V00:00:0000:00:0000:00:00
WB7NNF2026-08-31 18:03:3347.82398-117.1732368°35km/h16678m4.6m/s-56.1°C0%0hPa0V00:00:0000:00:0000:00:00
WB7NNF2026-08-31 18:03:1247.82263-117.1758248°35km/h16581m4.5m/s-56.4°C0%0hPa0V00:00:0000:00:0000:00:00
WB7NNF2026-08-31 18:02:5247.82108-117.1787047°47km/h16476m5.0m/s-56.7°C0%0hPa0V00:00:0000:00:0000:00:00
WB7NNF2026-08-31 18:02:3147.81941-117.1814133°51km/h16378m5.7m/s-56.2°C0%0hPa0V00:00:0000:00:0000:00:00
WB7NNF2026-08-31 18:02:1147.81751-117.1835845°37km/h16276m4.2m/s-55.8°C0%0hPa0V00:00:0000:00:0000:00:00
WB7NNF2026-08-31 18:01:5047.81571-117.1848119°42km/h16180m5.9m/s-55.4°C0%0hPa0V00:00:0000:00:0000:00:00
WB7NNF2026-08-31 18:01:3047.81404-117.1860138°29km/h16079m4.9m/s-55.3°C0%0hPa0V00:00:0000:00:0000:00:00
WB7NNF2026-08-31 18:01:0947.81277-117.1872636°27km/h15981m6.1m/s-54.8°C0%0hPa0V00:00:0000:00:0000:00:00
WB7NNF2026-08-31 18:00:4947.81156-117.1891153°35km/h15882m5.4m/s-55.0°C0%0hPa0V00:00:0000:00:0000:00:00
WB7NNF2026-08-31 18:00:2847.81038-117.1915352°47km/h15787m4.5m/s-54.8°C0%0hPa0V00:00:0000:00:0000:00:00
WB7NNF2026-08-31 18:00:0847.80921-117.1941159°38km/h15691m5.9m/s-54.8°C0%0hPa0V00:00:0000:00:0000:00:00
WB7NNF2026-08-31 17:59:4747.80828-117.1964477°33km/h15597m2.9m/s-54.9°C0%0hPa0V00:00:0000:00:0000:00:00
WB7NNF2026-08-31 17:59:2747.80708-117.1992252°46km/h15502m4.7m/s-55.2°C0%0hPa0V00:00:0000:00:0000:00:00
WB7NNF2026-08-31 17:59:0647.80604-117.2017349°42km/h15415m4.7m/s-56.2°C0%0hPa0V00:00:0000:00:0000:00:00
WB7NNF2026-08-31 17:58:4647.80484-117.2040677°31km/h15320m6.3m/s-56.7°C0%0hPa0V00:00:0000:00:0000:00:00
WB7NNF2026-08-31 17:58:2547.80424-117.2061483°24km/h15221m4.1m/s-56.8°C0%0hPa0V00:00:0000:00:0000:00:00
WB7NNF2026-08-31 17:58:0447.80371-117.2084066°47km/h15128m5.2m/s-56.7°C0%0hPa0V00:00:0000:00:0000:00:00
WB7NNF2026-08-31 17:57:4447.80303-117.2114057°38km/h15029m3.6m/s-56.4°C0%0hPa0V00:00:0000:00:0000:00:00
WB7NNF2026-08-31 17:57:2347.80225-117.2141271°42km/h14938m4.4m/s-56.4°C0%0hPa0V00:00:0000:00:0000:00:00
WB7NNF2026-08-31 17:57:0347.80115-117.2173165°42km/h14840m5.4m/s-56.4°C0%0hPa0V00:00:0000:00:0000:00:00
WB7NNF2026-08-31 17:56:4247.80011-117.2201662°44km/h14747m5.3m/s-56.4°C0%0hPa0V00:00:0000:00:0000:00:00
WB7NNF2026-08-31 17:56:2247.79906-117.2234569°55km/h14651m3.8m/s-56.4°C0%0hPa0V00:00:0000:00:0000:00:00
WB7NNF2026-08-31 17:56:0147.79823-117.2268477°47km/h14561m3.4m/s-56.2°C0%0hPa0V00:00:0000:00:0000:00:00
WB7NNF2026-08-31 17:55:4147.79714-117.2305073°49km/h14466m4.8m/s-56.5°C0%0hPa0V00:00:0000:00:0000:00:00
WB7NNF2026-08-31 17:55:2047.79600-117.2344661°58km/h14378m4.2m/s-56.9°C0%0hPa0V00:00:0000:00:0000:00:00
WB7NNF2026-08-31 17:55:0047.79478-117.2386457°62km/h14286m4.1m/s-57.5°C0%0hPa0V00:00:0000:00:0000:00:00
WB7NNF2026-08-31 17:54:3947.79319-117.2427361°68km/h14200m4.3m/s-58.5°C0%0hPa0V00:00:0000:00:0000:00:00
WB7NNF2026-08-31 17:54:1947.79140-117.2464057°66km/h14109m4.3m/s-58.6°C0%0hPa0V00:00:0000:00:0000:00:00
WB7NNF2026-08-31 17:53:5847.78991-117.2500254°62km/h14021m4.9m/s-58.6°C0%0hPa0V00:00:0000:00:0000:00:00
WB7NNF2026-08-31 17:53:3847.78827-117.2536864°53km/h13930m4.4m/s-58.8°C0%0hPa0V00:00:0000:00:0000:00:00
WB7NNF2026-08-31 17:53:1747.78680-117.2571475°68km/h13832m5.1m/s-58.4°C0%0hPa0V00:00:0000:00:0000:00:00
WB7NNF2026-08-31 17:52:5647.78551-117.2612667°69km/h13738m4.4m/s-58.6°C0%0hPa0V00:00:0000:00:0000:00:00
WB7NNF2026-08-31 17:52:3647.78385-117.2654359°53km/h13638m5.8m/s-58.5°C0%0hPa0V00:00:0000:00:0000:00:00
WB7NNF2026-08-31 17:52:1547.78228-117.2684850°60km/h13549m3.2m/s-59.3°C0%0hPa0V00:00:0000:00:0000:00:00
WB7NNF2026-08-31 17:51:5547.78040-117.2724247°64km/h13454m4.7m/s-60.6°C0%0hPa0V00:00:0000:00:0000:00:00
WB7NNF2026-08-31 17:51:3447.77866-117.2759565°53km/h13365m3.7m/s-60.7°C0%0hPa0V00:00:0000:00:0000:00:00
WB7NNF2026-08-31 17:51:1447.77726-117.2798465°58km/h13275m5.4m/s-60.3°C0%0hPa0V00:00:0000:00:0000:00:00
WB7NNF2026-08-31 17:50:5447.77610-117.2840078°64km/h13187m3.5m/s-60.5°C0%0hPa0V00:00:0000:00:0000:00:00
WB7NNF2026-08-31 17:50:3347.77501-117.2891078°68km/h13098m3.6m/s-60.6°C0%0hPa0V00:00:0000:00:0000:00:00
WB7NNF2026-08-31 17:50:1247.77408-117.2945275°89km/h13013m3.1m/s-60.2°C0%0hPa0V00:00:0000:00:0000:00:00
WB7NNF2026-08-31 17:49:5247.77275-117.3005273°73km/h12912m3.3m/s-59.6°C0%0hPa0V00:00:0000:00:0000:00:00
WB7NNF2026-08-31 17:49:3147.77112-117.3064267°82km/h12828m4.7m/s-59.3°C0%0hPa0V00:00:0000:00:0000:00:00
WB7NNF2026-08-31 17:49:1147.76933-117.3124160°88km/h12738m3.1m/s-59.6°C0%0hPa0V00:00:0000:00:0000:00:00
WB7NNF2026-08-31 17:48:5047.76747-117.3179264°73km/h12655m5.4m/s-60.4°C0%0hPa0V00:00:0000:00:0000:00:00
WB7NNF2026-08-31 17:48:3047.76560-117.3233974°80km/h12568m3.0m/s-60.3°C0%0hPa0V00:00:0000:00:0000:00:00
WB7NNF2026-08-31 17:48:0947.76391-117.3287369°75km/h12480m3.5m/s-59.8°C0%0hPa0V00:00:0000:00:0000:00:00
WB7NNF2026-08-31 17:47:4847.76230-117.3336065°68km/h12394m5.2m/s-59.2°C0%0hPa0V00:00:0000:00:0000:00:00
WB7NNF2026-08-31 17:47:2847.76072-117.3384964°78km/h12304m4.3m/s-58.9°C0%0hPa0V00:00:0000:00:0000:00:00
WB7NNF2026-08-31 17:47:0747.75940-117.3429671°68km/h12216m3.3m/s-58.4°C0%0hPa0V00:00:0000:00:0000:00:00
WB7NNF2026-08-31 17:46:4747.75801-117.3477171°71km/h12126m3.6m/s-57.8°C0%0hPa0V00:00:0000:00:0000:00:00
WB7NNF2026-08-31 17:46:2647.75685-117.3523768°62km/h12041m3.7m/s-57.2°C0%0hPa0V00:00:0000:00:0000:00:00
WB7NNF2026-08-31 17:46:0647.75551-117.3573573°71km/h11953m5.2m/s-56.7°C0%0hPa0V00:00:0000:00:0000:00:00
WB7NNF2026-08-31 17:45:4547.75436-117.3618372°60km/h11866m5.3m/s-56.3°C0%0hPa0V00:00:0000:00:0000:00:00
WB7NNF2026-08-31 17:45:2547.75313-117.3663866°66km/h11775m3.7m/s-55.7°C0%0hPa0V00:00:0000:00:0000:00:00
WB7NNF2026-08-31 17:45:0447.75177-117.3709063°69km/h11687m5.5m/s-55.0°C0%0hPa0V00:00:0000:00:0000:00:00
WB7NNF2026-08-31 17:44:4447.75033-117.3754549°62km/h11592m4.4m/s-54.5°C0%0hPa0V00:00:0000:00:0000:00:00
WB7NNF2026-08-31 17:44:2347.74911-117.3798469°75km/h11504m3.8m/s-54.0°C0%0hPa0V00:00:0000:00:0000:00:00
WB7NNF2026-08-31 17:44:0347.74792-117.3844169°66km/h11416m2.8m/s-53.3°C0%0hPa0V00:00:0000:00:0000:00:00
WB7NNF2026-08-31 17:43:4247.74683-117.3887573°64km/h11329m4.4m/s-52.5°C0%0hPa0V00:00:0000:00:0000:00:00
WB7NNF2026-08-31 17:43:2247.74565-117.3933469°64km/h11238m4.0m/s-51.7°C0%0hPa0V00:00:0000:00:0000:00:00
WB7NNF2026-08-31 17:43:0147.74451-117.3978079°66km/h11148m3.2m/s-50.9°C0%0hPa0V00:00:0000:00:0000:00:00
WB7NNF2026-08-31 17:42:4047.74339-117.4019265°47km/h11060m4.5m/s-50.4°C0%0hPa0V00:00:0000:00:0000:00:00
WB7NNF2026-08-31 17:42:2047.74224-117.4061963°51km/h10971m4.4m/s-49.8°C0%0hPa0V00:00:0000:00:0000:00:00
WB7NNF2026-08-31 17:41:5947.74109-117.4101483°57km/h10887m4.5m/s-49.3°C0%0hPa0V00:00:0000:00:0000:00:00
WB7NNF2026-08-31 17:41:3947.73989-117.4141962°60km/h10797m4.8m/s-48.5°C0%0hPa0V00:00:0000:00:0000:00:00
WB7NNF2026-08-31 17:41:1847.73871-117.4182571°49km/h10713m4.4m/s-47.8°C0%0hPa0V00:00:0000:00:0000:00:00
WB7NNF2026-08-31 17:40:5847.73750-117.4223766°66km/h10623m4.0m/s-47.1°C0%0hPa0V00:00:0000:00:0000:00:00
WB7NNF2026-08-31 17:40:3747.73640-117.4262867°68km/h10534m4.2m/s-46.6°C0%0hPa0V00:00:0000:00:0000:00:00
WB7NNF2026-08-31 17:40:1747.73546-117.4306077°46km/h10445m3.6m/s-45.8°C0%0hPa0V00:00:0000:00:0000:00:00
WB7NNF2026-08-31 17:39:5647.73442-117.4345778°51km/h10360m4.8m/s-45.0°C0%0hPa0V00:00:0000:00:0000:00:00
WB7NNF2026-08-31 17:39:3647.73347-117.4388969°64km/h10269m3.7m/s-44.4°C0%0hPa0V00:00:0000:00:0000:00:00
WB7NNF2026-08-31 17:39:1547.73256-117.4430371°66km/h10183m4.1m/s-43.5°C0%0hPa0V00:00:0000:00:0000:00:00
WB7NNF2026-08-31 17:38:5547.73151-117.4473778°60km/h10093m4.6m/s-42.8°C0%0hPa0V00:00:0000:00:0000:00:00
WB7NNF2026-08-31 17:38:3447.73077-117.4510772°49km/h10007m3.9m/s-42.0°C0%0hPa0V00:00:0000:00:0000:00:00
WB7NNF2026-08-31 17:38:1447.72996-117.4549468°51km/h9918m3.7m/s-41.2°C0%0hPa0V00:00:0000:00:0000:00:00
WB7NNF2026-08-31 17:37:5347.72923-117.4585681°58km/h9829m4.0m/s-40.5°C0%0hPa0V00:00:0000:00:0000:00:00
WB7NNF2026-08-31 17:37:3247.72859-117.4621087°37km/h9747m4.5m/s-39.7°C0%0hPa0V00:00:0000:00:0000:00:00
WB7NNF2026-08-31 17:37:1247.72819-117.4656176°49km/h9654m3.5m/s-38.9°C0%0hPa0V00:00:0000:00:0000:00:00
WB7NNF2026-08-31 17:36:5147.72785-117.4689278°49km/h9566m3.8m/s-38.1°C0%0hPa0V00:00:0000:00:0000:00:00
WB7NNF2026-08-31 17:36:3147.72743-117.4724772°49km/h9478m2.8m/s-37.3°C0%0hPa0V00:00:0000:00:0000:00:00
WB7NNF2026-08-31 17:36:1047.72698-117.4759970°51km/h9395m4.1m/s-36.6°C0%0hPa0V00:00:0000:00:0000:00:00
WB7NNF2026-08-31 17:35:5047.72642-117.4795080°49km/h9306m3.8m/s-35.9°C0%0hPa0V00:00:0000:00:0000:00:00
WB7NNF2026-08-31 17:35:2947.72594-117.4827565°44km/h9221m4.3m/s-35.2°C0%0hPa0V00:00:0000:00:0000:00:00
WB7NNF2026-08-31 17:35:0947.72539-117.4860075°35km/h9131m3.4m/s-34.5°C0%0hPa0V00:00:0000:00:0000:00:00
WB7NNF2026-08-31 17:34:4847.72461-117.4890179°35km/h9046m4.0m/s-33.9°C0%0hPa0V00:00:0000:00:0000:00:00
WB7NNF2026-08-31 17:34:2847.72357-117.4923076°53km/h8955m2.8m/s-33.3°C0%0hPa0V00:00:0000:00:0000:00:00
WB7NNF2026-08-31 17:34:0847.72252-117.4956765°46km/h8869m4.6m/s-32.9°C0%0hPa0V00:00:0000:00:0000:00:00
WB7NNF2026-08-31 17:33:4747.72133-117.4991256°49km/h8775m4.8m/s-32.2°C0%0hPa0V00:00:0000:00:0000:00:00
WB7NNF2026-08-31 17:33:2647.72036-117.5017372°46km/h8687m4.0m/s-31.4°C0%0hPa0V00:00:0000:00:0000:00:00
WB7NNF2026-08-31 17:33:0647.71930-117.5047954°35km/h8600m4.7m/s-30.6°C0%0hPa0V00:00:0000:00:0000:00:00
WB7NNF2026-08-31 17:32:4547.71841-117.5079261°35km/h8514m3.7m/s-29.9°C0%0hPa0V00:00:0000:00:0000:00:00
WB7NNF2026-08-31 17:32:2447.71757-117.5106356°31km/h8430m3.6m/s-29.2°C0%0hPa0V00:00:0000:00:0000:00:00
WB7NNF2026-08-31 17:32:0447.71669-117.5135368°46km/h8335m6.9m/s-29.0°C0%0hPa0V00:00:0000:00:0000:00:00
WB7NNF2026-08-31 17:31:4347.71559-117.5165277°44km/h8254m2.3m/s-28.6°C0%0hPa0V00:00:0000:00:0000:00:00
WB7NNF2026-08-31 17:31:2347.71442-117.5193876°42km/h8171m3.9m/s-27.9°C0%0hPa0V00:00:0000:00:0000:00:00
WB7NNF2026-08-31 17:31:0247.71343-117.5219655°47km/h8089m4.5m/s-27.3°C0%0hPa0V00:00:0000:00:0000:00:00
WB7NNF2026-08-31 17:30:4247.71237-117.5246268°46km/h8005m3.2m/s-26.6°C0%0hPa0V00:00:0000:00:0000:00:00
WB7NNF2026-08-31 17:30:2147.71139-117.5271350°44km/h7919m4.9m/s-25.9°C0%0hPa0V00:00:0000:00:0000:00:00
WB7NNF2026-08-31 17:29:5947.71025-117.5300456°40km/h7827m5.5m/s-25.2°C0%0hPa0V00:00:0000:00:0000:00:00
WB7NNF2026-08-31 17:29:3847.70912-117.5329356°27km/h7730m3.4m/s-24.4°C0%0hPa0V00:00:0000:00:0000:00:00
WB7NNF2026-08-31 17:29:1847.70810-117.5357458°49km/h7643m4.6m/s-23.8°C0%0hPa0V00:00:0000:00:0000:00:00
WB7NNF2026-08-31 17:28:5447.70692-117.5387666°31km/h7544m4.5m/s-23.1°C0%0hPa0V00:00:0000:00:0000:00:00
WB7NNF2026-08-31 17:28:3147.70618-117.5416455°31km/h7454m4.2m/s-22.5°C0%0hPa0V00:00:0000:00:0000:00:00
WB7NNF2026-08-31 17:28:1147.70564-117.5443259°44km/h7365m3.2m/s-21.8°C0%0hPa0V00:00:0000:00:0000:00:00
WB7NNF2026-08-31 17:27:5047.70505-117.5468982°46km/h7280m3.0m/s-21.2°C0%0hPa0V00:00:0000:00:0000:00:00
WB7NNF2026-08-31 17:27:3047.70442-117.5493561°31km/h7190m5.2m/s-20.5°C0%0hPa0V00:00:0000:00:0000:00:00
WB7NNF2026-08-31 17:27:0947.70357-117.5517851°27km/h7092m4.2m/s-20.4°C0%0hPa0V00:00:0000:00:0000:00:00
WB7NNF2026-08-31 17:26:4847.70295-117.5544674°49km/h6999m6.4m/s-19.6°C0%0hPa0V00:00:0000:00:0000:00:00
WB7NNF2026-08-31 17:26:2847.70255-117.5576592°49km/h6906m4.0m/s-19.0°C0%0hPa0V00:00:0000:00:0000:00:00
WB7NNF2026-08-31 17:26:0747.70199-117.5605264°46km/h6799m4.0m/s-18.1°C0%0hPa0V00:00:0000:00:0000:00:00
WB7NNF2026-08-31 17:25:4747.70132-117.5633977°35km/h6712m5.2m/s-17.5°C0%0hPa0V00:00:0000:00:0000:00:00
WB7NNF2026-08-31 17:25:2647.70055-117.5658666°35km/h6630m5.3m/s-16.9°C0%0hPa0V00:00:0000:00:0000:00:00
WB7NNF2026-08-31 17:25:0647.69945-117.5681439°38km/h6535m4.3m/s-16.1°C0%0hPa0V00:00:0000:00:0000:00:00
WB7NNF2026-08-31 17:24:4447.69841-117.5709345°49km/h6430m4.8m/s-15.1°C0%0hPa0V00:00:0000:00:0000:00:00
WB7NNF2026-08-31 17:24:2347.69738-117.5736168°33km/h6340m3.7m/s-14.4°C0%0hPa0V00:00:0000:00:0000:00:00
WB7NNF2026-08-31 17:24:0247.69645-117.5763541°46km/h6251m6.2m/s-15.2°C0%0hPa0V00:00:0000:00:0000:00:00
WB7NNF2026-08-31 17:23:3547.69560-117.5797564°40km/h6108m3.8m/s-14.3°C0%0hPa0V00:00:0000:00:0000:00:00
WB7NNF2026-08-31 17:23:1447.69536-117.5829593°37km/h6008m3.8m/s-13.6°C0%0hPa0V00:00:0000:00:0000:00:00
WB7NNF2026-08-31 17:22:5447.69504-117.5859274°29km/h5913m3.6m/s-13.0°C0%0hPa0V00:00:0000:00:0000:00:00


GPX KML Map

© wettersonde.net (DO2JMG) - 2026  -  -